sensor_id;sensor_type;location;lat;lon;timestamp;temperature;humidity
40287;DHT22;25998;46.604;13.610;2023-07-29T00:01:21;19.80;99.90
40287;DHT22;25998;46.604;13.610;2023-07-29T00:04:32;19.90;99.90
40287;DHT22;25998;46.604;13.610;2023-07-29T00:07:43;19.90;99.90
40287;DHT22;25998;46.604;13.610;2023-07-29T00:10:54;20.00;99.90
40287;DHT22;25998;46.604;13.610;2023-07-29T00:14:04;20.00;99.90
40287;DHT22;25998;46.604;13.610;2023-07-29T00:17:15;19.90;99.90
40287;DHT22;25998;46.604;13.610;2023-07-29T00:20:26;19.80;99.90
40287;DHT22;25998;46.604;13.610;2023-07-29T00:23:37;19.80;99.90
40287;DHT22;25998;46.604;13.610;2023-07-29T00:26:48;19.80;99.90
40287;DHT22;25998;46.604;13.610;2023-07-29T00:29:58;19.50;99.90
40287;DHT22;25998;46.604;13.610;2023-07-29T00:33:09;19.60;99.90
40287;DHT22;25998;46.604;13.610;2023-07-29T00:36:20;19.60;99.90
40287;DHT22;25998;46.604;13.610;2023-07-29T00:39:31;19.60;99.90
40287;DHT22;25998;46.604;13.610;2023-07-29T00:42:42;19.70;99.90
40287;DHT22;25998;46.604;13.610;2023-07-29T00:45:53;19.70;99.90
40287;DHT22;25998;46.604;13.610;2023-07-29T00:49:04;19.60;99.90
40287;DHT22;25998;46.604;13.610;2023-07-29T00:52:15;19.60;99.90
40287;DHT22;25998;46.604;13.610;2023-07-29T00:55:27;19.50;99.90
40287;DHT22;25998;46.604;13.610;2023-07-29T00:58:38;19.20;99.90
40287;DHT22;25998;46.604;13.610;2023-07-29T01:01:49;18.90;99.90
40287;DHT22;25998;46.604;13.610;2023-07-29T01:05:01;18.60;99.90
40287;DHT22;25998;46.604;13.610;2023-07-29T01:08:52;18.40;99.90
40287;DHT22;25998;46.604;13.610;2023-07-29T01:15:50;18.50;99.90
40287;DHT22;25998;46.604;13.610;2023-07-29T01:19:06;18.30;99.90
40287;DHT22;25998;46.604;13.610;2023-07-29T01:22:20;18.10;99.90
40287;DHT22;25998;46.604;13.610;2023-07-29T01:25:32;17.90;99.90
40287;DHT22;25998;46.604;13.610;2023-07-29T01:28:43;18.10;99.90
40287;DHT22;25998;46.604;13.610;2023-07-29T01:31:56;18.30;99.90
40287;DHT22;25998;46.604;13.610;2023-07-29T01:38:52;18.40;99.90
40287;DHT22;25998;46.604;13.610;2023-07-29T01:42:04;18.40;99.90
40287;DHT22;25998;46.604;13.610;2023-07-29T01:45:16;18.30;99.90
40287;DHT22;25998;46.604;13.610;2023-07-29T01:48:27;18.20;99.90
40287;DHT22;25998;46.604;13.610;2023-07-29T01:51:41;18.10;99.90
40287;DHT22;25998;46.604;13.610;2023-07-29T01:54:51;18.20;99.90
40287;DHT22;25998;46.604;13.610;2023-07-29T01:58:02;18.40;99.90
40287;DHT22;25998;46.604;13.610;2023-07-29T02:01:13;18.40;99.90
40287;DHT22;25998;46.604;13.610;2023-07-29T02:04:24;18.20;99.90
40287;DHT22;25998;46.604;13.610;2023-07-29T02:07:35;18.10;99.90
40287;DHT22;25998;46.604;13.610;2023-07-29T02:10:45;18.10;99.90
40287;DHT22;25998;46.604;13.610;2023-07-29T02:13:56;18.30;99.90
40287;DHT22;25998;46.604;13.610;2023-07-29T02:17:07;18.40;99.90
40287;DHT22;25998;46.604;13.610;2023-07-29T02:20:19;18.50;99.90
40287;DHT22;25998;46.604;13.610;2023-07-29T02:23:30;18.40;99.90
40287;DHT22;25998;46.604;13.610;2023-07-29T02:26:41;18.40;99.90
40287;DHT22;25998;46.604;13.610;2023-07-29T02:29:52;18.60;99.90
40287;DHT22;25998;46.604;13.610;2023-07-29T02:33:03;18.50;99.90
40287;DHT22;25998;46.604;13.610;2023-07-29T02:36:14;18.50;99.90
40287;DHT22;25998;46.604;13.610;2023-07-29T02:39:25;18.40;99.90
40287;DHT22;25998;46.604;13.610;2023-07-29T02:42:36;18.20;99.90
40287;DHT22;25998;46.604;13.610;2023-07-29T02:45:47;18.40;99.90
40287;DHT22;25998;46.604;13.610;2023-07-29T02:48:58;18.60;99.90
40287;DHT22;25998;46.604;13.610;2023-07-29T02:52:09;18.70;99.90
40287;DHT22;25998;46.604;13.610;2023-07-29T02:55:20;18.40;99.90
40287;DHT22;25998;46.604;13.610;2023-07-29T02:58:31;18.40;99.90
40287;DHT22;25998;46.604;13.610;2023-07-29T03:01:42;18.40;99.90
40287;DHT22;25998;46.604;13.610;2023-07-29T03:04:53;18.50;99.90
40287;DHT22;25998;46.604;13.610;2023-07-29T03:08:04;18.30;99.90
40287;DHT22;25998;46.604;13.610;2023-07-29T03:11:15;17.80;99.90
40287;DHT22;25998;46.604;13.610;2023-07-29T03:14:26;17.30;99.90
40287;DHT22;25998;46.604;13.610;2023-07-29T03:17:38;17.20;99.90
40287;DHT22;25998;46.604;13.610;2023-07-29T03:20:49;17.30;99.90
40287;DHT22;25998;46.604;13.610;2023-07-29T03:24:00;17.40;99.90
40287;DHT22;25998;46.604;13.610;2023-07-29T03:27:11;17.50;99.90
40287;DHT22;25998;46.604;13.610;2023-07-29T03:30:22;17.50;99.90
40287;DHT22;25998;46.604;13.610;2023-07-29T03:33:33;17.60;99.90
40287;DHT22;25998;46.604;13.610;2023-07-29T03:36:44;17.80;99.90
40287;DHT22;25998;46.604;13.610;2023-07-29T03:39:58;18.00;99.90
40287;DHT22;25998;46.604;13.610;2023-07-29T03:43:09;18.00;99.90
40287;DHT22;25998;46.604;13.610;2023-07-29T03:46:20;18.00;99.90
40287;DHT22;25998;46.604;13.610;2023-07-29T03:49:32;17.80;99.90
40287;DHT22;25998;46.604;13.610;2023-07-29T03:52:43;17.80;99.90
40287;DHT22;25998;46.604;13.610;2023-07-29T03:55:53;17.90;99.90
40287;DHT22;25998;46.604;13.610;2023-07-29T03:59:05;18.00;99.90
40287;DHT22;25998;46.604;13.610;2023-07-29T04:02:17;18.00;99.90
40287;DHT22;25998;46.604;13.610;2023-07-29T04:05:27;18.00;99.90
40287;DHT22;25998;46.604;13.610;2023-07-29T04:08:38;17.90;99.90
40287;DHT22;25998;46.604;13.610;2023-07-29T04:11:49;17.80;99.90
40287;DHT22;25998;46.604;13.610;2023-07-29T04:15:01;17.80;99.90
40287;DHT22;25998;46.604;13.610;2023-07-29T04:18:12;17.70;99.90
40287;DHT22;25998;46.604;13.610;2023-07-29T04:21:23;17.60;99.90
40287;DHT22;25998;46.604;13.610;2023-07-29T04:24:33;17.60;99.90
40287;DHT22;25998;46.604;13.610;2023-07-29T04:27:44;17.70;99.90
40287;DHT22;25998;46.604;13.610;2023-07-29T04:30:55;17.70;99.90
40287;DHT22;25998;46.604;13.610;2023-07-29T04:34:06;17.60;99.90
40287;DHT22;25998;46.604;13.610;2023-07-29T04:37:17;17.50;99.90
40287;DHT22;25998;46.604;13.610;2023-07-29T04:40:27;17.60;99.90
40287;DHT22;25998;46.604;13.610;2023-07-29T04:43:38;17.80;99.90
40287;DHT22;25998;46.604;13.610;2023-07-29T04:46:49;18.00;99.90
40287;DHT22;25998;46.604;13.610;2023-07-29T04:50:00;18.10;99.90
40287;DHT22;25998;46.604;13.610;2023-07-29T04:53:11;18.20;99.90
40287;DHT22;25998;46.604;13.610;2023-07-29T04:56:21;18.10;99.90
40287;DHT22;25998;46.604;13.610;2023-07-29T04:59:32;17.80;99.90
40287;DHT22;25998;46.604;13.610;2023-07-29T05:02:43;17.70;99.90
40287;DHT22;25998;46.604;13.610;2023-07-29T05:05:54;17.70;99.90
40287;DHT22;25998;46.604;13.610;2023-07-29T05:09:14;17.70;99.90
40287;DHT22;25998;46.604;13.610;2023-07-29T05:12:25;17.50;99.90
40287;DHT22;25998;46.604;13.610;2023-07-29T05:15:36;17.40;99.90
40287;DHT22;25998;46.604;13.610;2023-07-29T05:18:46;17.60;99.90
40287;DHT22;25998;46.604;13.610;2023-07-29T05:21:58;17.60;99.90
40287;DHT22;25998;46.604;13.610;2023-07-29T05:25:08;17.60;99.90
40287;DHT22;25998;46.604;13.610;2023-07-29T05:28:19;17.70;99.90
40287;DHT22;25998;46.604;13.610;2023-07-29T05:31:30;17.60;99.90
40287;DHT22;25998;46.604;13.610;2023-07-29T05:34:41;17.50;99.90
40287;DHT22;25998;46.604;13.610;2023-07-29T05:37:52;17.40;99.90
40287;DHT22;25998;46.604;13.610;2023-07-29T05:41:03;17.20;99.90
40287;DHT22;25998;46.604;13.610;2023-07-29T05:44:14;17.20;99.90
40287;DHT22;25998;46.604;13.610;2023-07-29T05:47:25;17.00;99.90
40287;DHT22;25998;46.604;13.610;2023-07-29T05:50:36;17.00;99.90
40287;DHT22;25998;46.604;13.610;2023-07-29T05:53:47;17.10;99.90
40287;DHT22;25998;46.604;13.610;2023-07-29T05:56:58;17.40;99.90
40287;DHT22;25998;46.604;13.610;2023-07-29T06:00:09;17.70;99.90
40287;DHT22;25998;46.604;13.610;2023-07-29T06:03:20;17.80;99.90
40287;DHT22;25998;46.604;13.610;2023-07-29T06:06:31;17.90;99.90
40287;DHT22;25998;46.604;13.610;2023-07-29T06:09:42;18.00;99.90
40287;DHT22;25998;46.604;13.610;2023-07-29T06:12:52;18.00;99.90
40287;DHT22;25998;46.604;13.610;2023-07-29T06:16:03;18.00;99.90
40287;DHT22;25998;46.604;13.610;2023-07-29T06:19:14;18.20;99.90
40287;DHT22;25998;46.604;13.610;2023-07-29T06:22:25;18.60;99.90
40287;DHT22;25998;46.604;13.610;2023-07-29T06:25:36;19.10;99.90
40287;DHT22;25998;46.604;13.610;2023-07-29T06:28:46;19.10;99.90
40287;DHT22;25998;46.604;13.610;2023-07-29T06:31:58;19.00;99.90
40287;DHT22;25998;46.604;13.610;2023-07-29T06:35:09;19.50;99.90
40287;DHT22;25998;46.604;13.610;2023-07-29T06:38:20;20.00;99.90
40287;DHT22;25998;46.604;13.610;2023-07-29T06:41:32;20.80;99.90
40287;DHT22;25998;46.604;13.610;2023-07-29T06:44:43;21.10;99.90
40287;DHT22;25998;46.604;13.610;2023-07-29T06:47:56;21.30;99.90
40287;DHT22;25998;46.604;13.610;2023-07-29T06:51:07;21.60;99.90
40287;DHT22;25998;46.604;13.610;2023-07-29T06:54:18;21.80;99.90
40287;DHT22;25998;46.604;13.610;2023-07-29T06:57:28;22.00;99.90
40287;DHT22;25998;46.604;13.610;2023-07-29T07:00:39;22.10;99.90
40287;DHT22;25998;46.604;13.610;2023-07-29T07:03:50;22.30;99.90
40287;DHT22;25998;46.604;13.610;2023-07-29T07:07:04;22.60;99.90
40287;DHT22;25998;46.604;13.610;2023-07-29T07:10:15;22.80;99.90
40287;DHT22;25998;46.604;13.610;2023-07-29T07:13:26;23.00;99.90
40287;DHT22;25998;46.604;13.610;2023-07-29T07:16:37;23.30;99.90
40287;DHT22;25998;46.604;13.610;2023-07-29T07:19:49;23.60;99.90
40287;DHT22;25998;46.604;13.610;2023-07-29T07:23:00;23.70;99.90
40287;DHT22;25998;46.604;13.610;2023-07-29T07:26:11;24.10;99.90
40287;DHT22;25998;46.604;13.610;2023-07-29T07:29:22;24.10;99.10
40287;DHT22;25998;46.604;13.610;2023-07-29T07:32:33;23.70;99.80
40287;DHT22;25998;46.604;13.610;2023-07-29T07:35:44;24.20;99.90
40287;DHT22;25998;46.604;13.610;2023-07-29T07:38:55;24.70;99.70
40287;DHT22;25998;46.604;13.610;2023-07-29T07:42:06;24.80;99.70
40287;DHT22;25998;46.604;13.610;2023-07-29T07:45:17;24.60;99.40
40287;DHT22;25998;46.604;13.610;2023-07-29T07:48:28;24.60;99.10
40287;DHT22;25998;46.604;13.610;2023-07-29T07:51:39;24.90;98.70
40287;DHT22;25998;46.604;13.610;2023-07-29T07:54:54;25.10;99.30
40287;DHT22;25998;46.604;13.610;2023-07-29T07:58:05;24.70;98.90
40287;DHT22;25998;46.604;13.610;2023-07-29T08:01:15;24.80;98.70
40287;DHT22;25998;46.604;13.610;2023-07-29T08:04:26;24.50;99.80
40287;DHT22;25998;46.604;13.610;2023-07-29T08:07:37;24.50;99.30
40287;DHT22;25998;46.604;13.610;2023-07-29T08:10:48;24.50;99.90
40287;DHT22;25998;46.604;13.610;2023-07-29T08:13:59;24.30;99.40
40287;DHT22;25998;46.604;13.610;2023-07-29T08:17:10;24.20;99.50
40287;DHT22;25998;46.604;13.610;2023-07-29T08:20:20;24.30;99.90
40287;DHT22;25998;46.604;13.610;2023-07-29T08:23:32;24.30;99.50
40287;DHT22;25998;46.604;13.610;2023-07-29T08:26:43;24.40;99.90
40287;DHT22;25998;46.604;13.610;2023-07-29T08:29:54;24.70;99.90
40287;DHT22;25998;46.604;13.610;2023-07-29T08:33:05;24.70;99.90
40287;DHT22;25998;46.604;13.610;2023-07-29T08:36:16;25.00;99.30
40287;DHT22;25998;46.604;13.610;2023-07-29T08:39:27;25.30;99.60
40287;DHT22;25998;46.604;13.610;2023-07-29T08:42:39;25.40;98.00
40287;DHT22;25998;46.604;13.610;2023-07-29T08:45:52;25.90;99.20
40287;DHT22;25998;46.604;13.610;2023-07-29T08:49:03;25.90;97.90
40287;DHT22;25998;46.604;13.610;2023-07-29T08:52:14;26.20;96.90
40287;DHT22;25998;46.604;13.610;2023-07-29T08:55:26;25.90;97.50
40287;DHT22;25998;46.604;13.610;2023-07-29T08:58:37;26.00;96.30
40287;DHT22;25998;46.604;13.610;2023-07-29T09:01:49;26.40;97.70
40287;DHT22;25998;46.604;13.610;2023-07-29T09:05:01;26.50;97.60
40287;DHT22;25998;46.604;13.610;2023-07-29T09:08:13;26.50;97.50
40287;DHT22;25998;46.604;13.610;2023-07-29T09:11:24;26.80;96.60
40287;DHT22;25998;46.604;13.610;2023-07-29T09:14:35;26.60;95.10
40287;DHT22;25998;46.604;13.610;2023-07-29T09:17:46;26.90;96.90
40287;DHT22;25998;46.604;13.610;2023-07-29T09:20:59;27.50;95.90
40287;DHT22;25998;46.604;13.610;2023-07-29T09:24:10;27.30;95.60
40287;DHT22;25998;46.604;13.610;2023-07-29T09:27:27;26.90;96.80
40287;DHT22;25998;46.604;13.610;2023-07-29T09:30:39;26.80;97.00
40287;DHT22;25998;46.604;13.610;2023-07-29T09:33:56;26.90;96.80
40287;DHT22;25998;46.604;13.610;2023-07-29T09:37:08;27.20;96.90
40287;DHT22;25998;46.604;13.610;2023-07-29T09:40:19;27.10;96.70
40287;DHT22;25998;46.604;13.610;2023-07-29T09:43:34;27.30;97.00
40287;DHT22;25998;46.604;13.610;2023-07-29T09:46:46;27.30;95.70
40287;DHT22;25998;46.604;13.610;2023-07-29T09:49:57;27.30;96.50
40287;DHT22;25998;46.604;13.610;2023-07-29T09:53:10;27.50;95.70
40287;DHT22;25998;46.604;13.610;2023-07-29T09:56:26;27.60;96.10
40287;DHT22;25998;46.604;13.610;2023-07-29T09:59:37;27.50;96.70
40287;DHT22;25998;46.604;13.610;2023-07-29T10:02:48;27.90;96.30
40287;DHT22;25998;46.604;13.610;2023-07-29T10:06:03;28.10;95.70
40287;DHT22;25998;46.604;13.610;2023-07-29T10:09:14;27.90;95.70
40287;DHT22;25998;46.604;13.610;2023-07-29T10:12:26;27.70;95.20
40287;DHT22;25998;46.604;13.610;2023-07-29T10:15:37;27.90;95.30
40287;DHT22;25998;46.604;13.610;2023-07-29T10:18:48;28.10;95.10
40287;DHT22;25998;46.604;13.610;2023-07-29T10:22:00;28.50;95.90
40287;DHT22;25998;46.604;13.610;2023-07-29T10:25:21;28.30;94.90
40287;DHT22;25998;46.604;13.610;2023-07-29T10:28:33;28.30;95.30
40287;DHT22;25998;46.604;13.610;2023-07-29T10:31:47;28.10;95.20
40287;DHT22;25998;46.604;13.610;2023-07-29T10:34:59;28.10;95.80
40287;DHT22;25998;46.604;13.610;2023-07-29T10:38:10;28.60;95.30
40287;DHT22;25998;46.604;13.610;2023-07-29T10:41:22;28.70;96.10
40287;DHT22;25998;46.604;13.610;2023-07-29T10:47:50;28.70;95.90
40287;DHT22;25998;46.604;13.610;2023-07-29T10:51:23;28.40;94.30
40287;DHT22;25998;46.604;13.610;2023-07-29T10:54:47;28.60;94.90
40287;DHT22;25998;46.604;13.610;2023-07-29T11:01:32;28.70;95.00
40287;DHT22;25998;46.604;13.610;2023-07-29T11:04:51;29.00;95.80
40287;DHT22;25998;46.604;13.610;2023-07-29T11:08:02;28.70;94.50
40287;DHT22;25998;46.604;13.610;2023-07-29T11:11:26;28.90;94.00
40287;DHT22;25998;46.604;13.610;2023-07-29T11:14:36;28.90;92.90
40287;DHT22;25998;46.604;13.610;2023-07-29T11:21:03;29.00;93.40
40287;DHT22;25998;46.604;13.610;2023-07-29T11:24:18;29.20;93.20
40287;DHT22;25998;46.604;13.610;2023-07-29T11:27:29;28.90;94.30
40287;DHT22;25998;46.604;13.610;2023-07-29T11:30:40;29.00;94.30
40287;DHT22;25998;46.604;13.610;2023-07-29T11:33:51;29.20;94.20
40287;DHT22;25998;46.604;13.610;2023-07-29T11:37:02;29.40;93.50
40287;DHT22;25998;46.604;13.610;2023-07-29T11:40:18;29.40;92.40
40287;DHT22;25998;46.604;13.610;2023-07-29T11:43:29;29.30;92.60
40287;DHT22;25998;46.604;13.610;2023-07-29T11:46:40;29.50;93.80
40287;DHT22;25998;46.604;13.610;2023-07-29T11:49:51;29.70;93.30
40287;DHT22;25998;46.604;13.610;2023-07-29T11:53:02;29.50;92.70
40287;DHT22;25998;46.604;13.610;2023-07-29T11:56:14;29.40;91.80
40287;DHT22;25998;46.604;13.610;2023-07-29T11:59:24;29.80;92.80
40287;DHT22;25998;46.604;13.610;2023-07-29T12:02:37;30.30;93.30
40287;DHT22;25998;46.604;13.610;2023-07-29T12:05:48;30.20;92.60
40287;DHT22;25998;46.604;13.610;2023-07-29T12:09:00;30.20;93.00
40287;DHT22;25998;46.604;13.610;2023-07-29T12:12:11;30.50;92.10
40287;DHT22;25998;46.604;13.610;2023-07-29T12:15:24;30.40;93.00
40287;DHT22;25998;46.604;13.610;2023-07-29T12:18:36;30.20;92.40
40287;DHT22;25998;46.604;13.610;2023-07-29T12:21:47;30.20;91.10
40287;DHT22;25998;46.604;13.610;2023-07-29T12:24:58;30.30;91.00
40287;DHT22;25998;46.604;13.610;2023-07-29T12:28:09;30.20;91.40
40287;DHT22;25998;46.604;13.610;2023-07-29T12:31:20;30.50;91.00
40287;DHT22;25998;46.604;13.610;2023-07-29T12:34:31;30.50;92.20
40287;DHT22;25998;46.604;13.610;2023-07-29T12:37:42;30.40;88.50
40287;DHT22;25998;46.604;13.610;2023-07-29T12:40:53;30.80;90.90
40287;DHT22;25998;46.604;13.610;2023-07-29T12:44:04;30.80;90.20
40287;DHT22;25998;46.604;13.610;2023-07-29T12:47:15;30.50;91.40
40287;DHT22;25998;46.604;13.610;2023-07-29T12:50:26;30.50;90.80
40287;DHT22;25998;46.604;13.610;2023-07-29T12:53:37;30.50;89.80
40287;DHT22;25998;46.604;13.610;2023-07-29T12:56:47;30.60;89.50
40287;DHT22;25998;46.604;13.610;2023-07-29T12:59:58;30.90;87.10
40287;DHT22;25998;46.604;13.610;2023-07-29T13:03:09;31.30;88.30
40287;DHT22;25998;46.604;13.610;2023-07-29T13:06:20;31.00;89.70
40287;DHT22;25998;46.604;13.610;2023-07-29T13:09:31;30.60;90.00
40287;DHT22;25998;46.604;13.610;2023-07-29T13:12:42;30.30;86.40
40287;DHT22;25998;46.604;13.610;2023-07-29T13:15:53;30.50;90.00
40287;DHT22;25998;46.604;13.610;2023-07-29T13:19:03;30.40;85.30
40287;DHT22;25998;46.604;13.610;2023-07-29T13:22:14;30.50;89.00
40287;DHT22;25998;46.604;13.610;2023-07-29T13:25:25;30.40;86.90
40287;DHT22;25998;46.604;13.610;2023-07-29T13:28:36;30.50;86.50
40287;DHT22;25998;46.604;13.610;2023-07-29T13:31:47;30.70;84.80
40287;DHT22;25998;46.604;13.610;2023-07-29T13:34:57;30.60;87.30
40287;DHT22;25998;46.604;13.610;2023-07-29T13:38:08;30.50;88.30
40287;DHT22;25998;46.604;13.610;2023-07-29T13:41:19;30.40;87.50
40287;DHT22;25998;46.604;13.610;2023-07-29T13:44:30;30.40;88.10
40287;DHT22;25998;46.604;13.610;2023-07-29T13:47:41;30.40;84.00
40287;DHT22;25998;46.604;13.610;2023-07-29T13:50:51;30.00;85.60
40287;DHT22;25998;46.604;13.610;2023-07-29T13:54:02;30.00;88.10
40287;DHT22;25998;46.604;13.610;2023-07-29T13:57:13;29.80;87.00
40287;DHT22;25998;46.604;13.610;2023-07-29T14:00:24;29.60;86.40
40287;DHT22;25998;46.604;13.610;2023-07-29T14:03:35;29.60;83.10
40287;DHT22;25998;46.604;13.610;2023-07-29T14:06:46;29.70;85.30
40287;DHT22;25998;46.604;13.610;2023-07-29T14:09:57;30.00;86.00
40287;DHT22;25998;46.604;13.610;2023-07-29T14:13:07;30.20;85.30
40287;DHT22;25998;46.604;13.610;2023-07-29T14:16:18;30.30;86.40
40287;DHT22;25998;46.604;13.610;2023-07-29T14:19:29;30.00;86.10
40287;DHT22;25998;46.604;13.610;2023-07-29T14:22:40;29.90;82.00
40287;DHT22;25998;46.604;13.610;2023-07-29T14:25:51;30.00;86.50
40287;DHT22;25998;46.604;13.610;2023-07-29T14:29:02;30.00;86.00
40287;DHT22;25998;46.604;13.610;2023-07-29T14:32:13;30.00;86.20
40287;DHT22;25998;46.604;13.610;2023-07-29T14:35:23;30.00;85.10
40287;DHT22;25998;46.604;13.610;2023-07-29T14:38:35;29.80;85.90
40287;DHT22;25998;46.604;13.610;2023-07-29T14:41:46;29.70;86.70
40287;DHT22;25998;46.604;13.610;2023-07-29T14:44:57;29.60;86.30
40287;DHT22;25998;46.604;13.610;2023-07-29T14:48:08;29.40;85.10
40287;DHT22;25998;46.604;13.610;2023-07-29T14:51:18;29.20;86.80
40287;DHT22;25998;46.604;13.610;2023-07-29T14:54:30;29.50;90.10
40287;DHT22;25998;46.604;13.610;2023-07-29T14:57:40;29.50;85.90
40287;DHT22;25998;46.604;13.610;2023-07-29T15:00:52;29.20;87.40
40287;DHT22;25998;46.604;13.610;2023-07-29T15:04:03;29.30;85.90
40287;DHT22;25998;46.604;13.610;2023-07-29T15:07:14;29.40;88.70
40287;DHT22;25998;46.604;13.610;2023-07-29T15:10:25;29.30;85.90
40287;DHT22;25998;46.604;13.610;2023-07-29T15:13:37;29.10;85.10
40287;DHT22;25998;46.604;13.610;2023-07-29T15:16:47;29.00;86.20
40287;DHT22;25998;46.604;13.610;2023-07-29T15:19:58;28.50;86.30
40287;DHT22;25998;46.604;13.610;2023-07-29T15:23:09;28.30;87.60
40287;DHT22;25998;46.604;13.610;2023-07-29T15:26:20;28.10;87.30
40287;DHT22;25998;46.604;13.610;2023-07-29T15:29:31;28.20;87.40
40287;DHT22;25998;46.604;13.610;2023-07-29T15:32:43;27.90;87.00
40287;DHT22;25998;46.604;13.610;2023-07-29T15:35:55;27.80;88.70
40287;DHT22;25998;46.604;13.610;2023-07-29T15:39:07;27.80;88.30
40287;DHT22;25998;46.604;13.610;2023-07-29T15:42:17;27.90;90.00
40287;DHT22;25998;46.604;13.610;2023-07-29T15:45:28;28.10;87.80
40287;DHT22;25998;46.604;13.610;2023-07-29T15:48:39;28.30;87.80
40287;DHT22;25998;46.604;13.610;2023-07-29T15:51:51;28.30;88.00
40287;DHT22;25998;46.604;13.610;2023-07-29T15:55:02;28.20;86.80
40287;DHT22;25998;46.604;13.610;2023-07-29T15:58:13;28.00;87.30
40287;DHT22;25998;46.604;13.610;2023-07-29T16:01:24;28.00;87.20
40287;DHT22;25998;46.604;13.610;2023-07-29T16:04:35;28.00;87.80
40287;DHT22;25998;46.604;13.610;2023-07-29T16:07:45;28.10;90.00
40287;DHT22;25998;46.604;13.610;2023-07-29T16:10:56;27.90;87.50
40287;DHT22;25998;46.604;13.610;2023-07-29T16:14:07;27.80;87.90
40287;DHT22;25998;46.604;13.610;2023-07-29T16:17:18;27.70;89.10
40287;DHT22;25998;46.604;13.610;2023-07-29T16:20:29;27.80;90.10
40287;DHT22;25998;46.604;13.610;2023-07-29T16:23:40;27.90;89.30
40287;DHT22;25998;46.604;13.610;2023-07-29T16:26:51;27.80;90.40
40287;DHT22;25998;46.604;13.610;2023-07-29T16:30:02;27.60;88.40
40287;DHT22;25998;46.604;13.610;2023-07-29T16:33:14;27.60;90.10
40287;DHT22;25998;46.604;13.610;2023-07-29T16:36:25;27.60;88.90
40287;DHT22;25998;46.604;13.610;2023-07-29T16:39:36;27.50;90.20
40287;DHT22;25998;46.604;13.610;2023-07-29T16:42:47;27.60;89.60
40287;DHT22;25998;46.604;13.610;2023-07-29T16:45:58;27.50;90.60
40287;DHT22;25998;46.604;13.610;2023-07-29T16:49:08;27.40;89.70
40287;DHT22;25998;46.604;13.610;2023-07-29T16:52:19;27.20;90.30
40287;DHT22;25998;46.604;13.610;2023-07-29T16:55:30;27.20;90.50
40287;DHT22;25998;46.604;13.610;2023-07-29T16:58:41;27.10;90.50
40287;DHT22;25998;46.604;13.610;2023-07-29T17:01:52;27.00;90.10
40287;DHT22;25998;46.604;13.610;2023-07-29T17:05:03;27.00;90.60
40287;DHT22;25998;46.604;13.610;2023-07-29T17:08:14;26.90;90.50
40287;DHT22;25998;46.604;13.610;2023-07-29T17:11:25;27.00;90.40
40287;DHT22;25998;46.604;13.610;2023-07-29T17:14:36;26.90;90.90
40287;DHT22;25998;46.604;13.610;2023-07-29T17:17:47;26.60;92.50
40287;DHT22;25998;46.604;13.610;2023-07-29T17:20:59;26.20;93.80
40287;DHT22;25998;46.604;13.610;2023-07-29T17:24:10;26.10;94.30
40287;DHT22;25998;46.604;13.610;2023-07-29T17:27:21;26.00;93.70
40287;DHT22;25998;46.604;13.610;2023-07-29T17:30:32;25.70;94.70
40287;DHT22;25998;46.604;13.610;2023-07-29T17:33:45;25.40;95.30
40287;DHT22;25998;46.604;13.610;2023-07-29T17:36:56;25.20;95.00
40287;DHT22;25998;46.604;13.610;2023-07-29T17:40:07;25.10;94.50
40287;DHT22;25998;46.604;13.610;2023-07-29T17:43:18;25.10;95.10
40287;DHT22;25998;46.604;13.610;2023-07-29T17:46:29;25.00;94.60
40287;DHT22;25998;46.604;13.610;2023-07-29T17:49:40;25.00;95.80
40287;DHT22;25998;46.604;13.610;2023-07-29T17:52:51;24.90;96.10
40287;DHT22;25998;46.604;13.610;2023-07-29T17:56:03;24.70;96.60
40287;DHT22;25998;46.604;13.610;2023-07-29T17:59:13;24.50;96.80
40287;DHT22;25998;46.604;13.610;2023-07-29T18:02:24;24.50;96.60
40287;DHT22;25998;46.604;13.610;2023-07-29T18:05:35;24.20;97.40
40287;DHT22;25998;46.604;13.610;2023-07-29T18:08:46;24.10;98.10
40287;DHT22;25998;46.604;13.610;2023-07-29T18:11:57;24.10;97.40
40287;DHT22;25998;46.604;13.610;2023-07-29T18:15:11;24.10;97.70
40287;DHT22;25998;46.604;13.610;2023-07-29T18:18:22;24.20;98.00
40287;DHT22;25998;46.604;13.610;2023-07-29T18:21:33;24.20;98.00
40287;DHT22;25998;46.604;13.610;2023-07-29T18:24:44;24.30;98.00
40287;DHT22;25998;46.604;13.610;2023-07-29T18:27:55;24.20;98.50
40287;DHT22;25998;46.604;13.610;2023-07-29T18:31:06;23.90;98.30
40287;DHT22;25998;46.604;13.610;2023-07-29T18:34:18;23.90;98.50
40287;DHT22;25998;46.604;13.610;2023-07-29T18:37:32;23.60;98.90
40287;DHT22;25998;46.604;13.610;2023-07-29T18:40:43;23.60;98.70
40287;DHT22;25998;46.604;13.610;2023-07-29T18:43:54;23.60;99.10
40287;DHT22;25998;46.604;13.610;2023-07-29T18:47:08;23.70;99.40
40287;DHT22;25998;46.604;13.610;2023-07-29T18:50:19;23.90;99.00
40287;DHT22;25998;46.604;13.610;2023-07-29T18:53:31;24.10;99.00
40287;DHT22;25998;46.604;13.610;2023-07-29T18:56:42;24.00;99.30
40287;DHT22;25998;46.604;13.610;2023-07-29T18:59:53;23.80;99.30
40287;DHT22;25998;46.604;13.610;2023-07-29T19:03:05;23.70;99.70
40287;DHT22;25998;46.604;13.610;2023-07-29T19:06:16;23.60;99.90
40287;DHT22;25998;46.604;13.610;2023-07-29T19:09:27;23.40;99.90
40287;DHT22;25998;46.604;13.610;2023-07-29T19:12:38;23.20;99.90
40287;DHT22;25998;46.604;13.610;2023-07-29T19:15:50;23.20;99.90
40287;DHT22;25998;46.604;13.610;2023-07-29T19:19:01;23.10;99.90
40287;DHT22;25998;46.604;13.610;2023-07-29T19:22:12;23.20;99.90
40287;DHT22;25998;46.604;13.610;2023-07-29T19:25:23;23.30;99.90
40287;DHT22;25998;46.604;13.610;2023-07-29T19:28:34;23.20;99.90
40287;DHT22;25998;46.604;13.610;2023-07-29T19:31:45;23.00;99.90
40287;DHT22;25998;46.604;13.610;2023-07-29T19:34:56;22.80;99.90
40287;DHT22;25998;46.604;13.610;2023-07-29T19:38:07;22.70;99.90
40287;DHT22;25998;46.604;13.610;2023-07-29T19:41:18;22.50;99.90
40287;DHT22;25998;46.604;13.610;2023-07-29T19:44:28;22.50;99.90
40287;DHT22;25998;46.604;13.610;2023-07-29T19:47:41;22.60;99.90
40287;DHT22;25998;46.604;13.610;2023-07-29T19:50:52;22.30;99.90
40287;DHT22;25998;46.604;13.610;2023-07-29T19:54:03;22.40;99.90
40287;DHT22;25998;46.604;13.610;2023-07-29T19:57:14;22.40;99.90
40287;DHT22;25998;46.604;13.610;2023-07-29T20:00:24;22.40;99.90
40287;DHT22;25998;46.604;13.610;2023-07-29T20:03:35;22.50;99.90
40287;DHT22;25998;46.604;13.610;2023-07-29T20:06:46;22.30;99.90